Time;durP1;ratioP1;P1;durP2;ratioP2;P2;SDS_P1;SDS_P2;PMS_P1;PMS_P2;Temp;Humidity;BMP_temperature;BMP_pressure;BME280_temperature;BME280_humidity;BME280_pressure;Samples;Min_cycle;Max_cycle;Signal;HPM_P1;HPM_P2
2022/08/23 05:49:51;;;;;;;7.50;5.82;;;20.90;72.90;;;;;;6205764;23;20097;-75
2022/08/23 05:52:17;;;;;;;9.93;6.50;;;20.90;73.00;;;;;;6191026;23;20482;-77
2022/08/23 05:54:47;;;;;;;12.15;7.78;;;21.00;73.20;;;;;;6192223;23;20047;-76
2022/08/23 05:57:12;;;;;;;13.10;7.68;;;20.90;73.20;;;;;;6218507;23;20095;-77
2022/08/23 05:59:40;;;;;;;13.38;8.50;;;20.90;73.40;;;;;;6217789;23;20412;-74
2022/08/23 06:02:06;;;;;;;16.05;8.18;;;20.90;73.60;;;;;;6191798;23;20088;-75
2022/08/23 06:04:32;;;;;;;15.43;9.23;;;20.90;73.60;;;;;;6218684;23;20048;-75
2022/08/23 06:06:58;;;;;;;21.20;8.88;;;20.90;73.50;;;;;;6218569;23;20017;-75
2022/08/23 06:09:24;;;;;;;14.05;8.73;;;20.90;73.60;;;;;;6218624;23;20020;-75
2022/08/23 06:11:49;;;;;;;14.50;8.90;;;20.90;73.50;;;;;;6218476;23;20020;-76
2022/08/23 06:14:15;;;;;;;11.98;8.10;;;20.80;73.40;;;;;;6218594;23;20020;-76
2022/08/23 06:16:45;;;;;;;14.88;9.30;;;20.80;73.40;;;;;;6218788;23;20016;-75
2022/08/23 06:19:13;;;;;;;12.52;8.40;;;20.90;73.50;;;;;;6191939;23;20016;-75
2022/08/23 06:21:39;;;;;;;13.38;8.02;;;20.80;73.30;;;;;;6218583;23;20008;-74
2022/08/23 06:24:06;;;;;;;13.00;7.38;;;20.90;73.10;;;;;;6191955;23;20062;-74
2022/08/23 06:26:37;;;;;;;13.07;7.70;;;20.90;73.10;;;;;;6218487;23;20059;-75
2022/08/23 06:29:06;;;;;;;11.68;6.72;;;20.90;73.10;;;;;;6192200;23;20422;-75
2022/08/23 06:31:45;;;;;;;12.80;7.70;;;21.00;73.10;;;;;;6218046;23;20031;-75
2022/08/23 06:34:19;;;;;;;11.85;7.22;;;20.90;72.90;;;;;;6218786;23;20016;-76
2022/08/23 06:36:51;;;;;;;12.15;7.35;;;20.90;72.90;;;;;;6218127;23;20039;-75
2022/08/23 06:39:19;;;;;;;13.75;7.07;;;21.00;72.90;;;;;;6218217;23;20031;-77
2022/08/23 06:41:49;;;;;;;17.27;7.05;;;21.00;73.10;;;;;;6218681;23;20017;-74
2022/08/23 06:44:16;;;;;;;12.43;7.93;;;21.00;73.00;;;;;;6218072;23;20052;-77
2022/08/23 06:46:41;;;;;;;13.68;8.60;;;21.00;72.90;;;;;;6217893;23;20013;-76
2022/08/23 06:49:07;;;;;;;9.57;7.85;;;21.10;72.60;;;;;;6217460;23;20021;-76
2022/08/23 06:51:37;;;;;;;9.70;8.00;;;21.10;72.70;;;;;;6217377;23;20095;-76
2022/08/23 06:54:07;;;;;;;11.38;8.32;;;21.10;72.60;;;;;;6217749;23;20021;-77
2022/08/23 06:56:34;;;;;;;13.48;8.43;;;21.10;72.60;;;;;;6217538;23;20044;-76
2022/08/23 06:59:02;;;;;;;15.10;8.88;;;21.10;72.60;;;;;;6217759;23;20055;-75
2022/08/23 07:01:33;;;;;;;11.30;8.07;;;21.10;72.70;;;;;;6218327;23;20020;-77
2022/08/23 07:04:00;;;;;;;13.73;8.65;;;21.10;72.90;;;;;;6217487;23;20028;-77
2022/08/23 07:06:29;;;;;;;12.25;9.30;;;21.10;72.90;;;;;;6191683;23;20027;-78
2022/08/23 07:08:55;;;;;;;13.80;8.82;;;21.10;72.90;;;;;;6217562;23;20021;-77
2022/08/23 07:11:22;;;;;;;14.88;8.38;;;21.10;72.80;;;;;;6217849;23;20020;-77
2022/08/23 07:13:48;;;;;;;11.63;9.15;;;21.20;72.60;;;;;;6217566;23;20078;-78
2022/08/23 07:16:16;;;;;;;11.88;8.43;;;21.20;72.60;;;;;;6217971;23;20103;-78
2022/08/23 07:18:44;;;;;;;11.60;8.10;;;21.20;72.70;;;;;;6217652;23;20017;-77
2022/08/23 07:21:11;;;;;;;10.52;8.15;;;21.20;72.80;;;;;;6217861;23;20088;-77
2022/08/23 07:23:38;;;;;;;9.85;7.93;;;21.20;72.90;;;;;;6216211;23;20021;-77
2022/08/23 07:26:10;;;;;;;9.60;7.68;;;21.20;73.00;;;;;;6215550;23;20017;-78
2022/08/23 07:28:37;;;;;;;11.52;6.82;;;21.30;72.70;;;;;;6217069;23;20016;-78
2022/08/23 07:31:16;;;;;;;10.35;7.30;;;21.30;72.80;;;;;;6217792;23;20349;-77
2022/08/23 07:33:42;;;;;;;14.68;6.90;;;21.30;72.50;;;;;;6217746;23;20020;-78
2022/08/23 07:36:09;;;;;;;7.18;6.35;;;21.30;72.40;;;;;;6217640;23;20054;-75
2022/08/23 07:38:35;;;;;;;8.25;6.55;;;21.40;72.30;;;;;;6217109;23;20444;-75
2022/08/23 07:41:02;;;;;;;7.50;6.20;;;21.40;72.20;;;;;;6191416;23;20320;-75
2022/08/23 07:43:30;;;;;;;9.95;6.28;;;21.40;72.00;;;;;;6190874;23;20032;-75
2022/08/23 07:45:56;;;;;;;8.52;5.80;;;21.50;71.90;;;;;;6217768;23;20020;-76
2022/08/23 07:48:22;;;;;;;9.40;5.50;;;21.50;71.90;;;;;;6217948;23;20365;-75
2022/08/23 07:50:58;;;;;;;8.18;5.13;;;21.50;71.80;;;;;;6217757;23;20432;-75
2022/08/23 07:53:24;;;;;;;7.68;5.72;;;21.50;71.70;;;;;;6217331;23;20091;-76
2022/08/23 07:55:51;;;;;;;7.25;5.30;;;21.60;71.60;;;;;;6217516;23;20027;-76
2022/08/23 07:58:16;;;;;;;7.28;5.20;;;21.60;71.60;;;;;;6216853;23;20013;-76
2022/08/23 08:00:42;;;;;;;6.55;4.25;;;21.60;71.50;;;;;;6216763;23;20237;-75
2022/08/23 08:03:10;;;;;;;8.48;4.57;;;21.60;71.40;;;;;;6190326;23;20317;-75
2022/08/23 08:05:36;;;;;;;8.98;5.40;;;21.70;71.40;;;;;;6216491;23;20028;-75
2022/08/23 08:08:03;;;;;;;6.68;4.88;;;21.70;71.20;;;;;;6216505;23;20047;-77
2022/08/23 08:10:30;;;;;;;8.20;4.63;;;21.70;70.90;;;;;;6217244;23;20028;-75
2022/08/23 08:12:56;;;;;;;6.90;3.67;;;21.80;71.00;;;;;;6217244;23;20051;-76
2022/08/23 08:15:22;;;;;;;6.00;3.75;;;21.80;71.10;;;;;;6217122;23;20025;-74
2022/08/23 08:17:49;;;;;;;7.55;3.72;;;21.90;71.10;;;;;;6217553;23;20009;-75
2022/08/23 08:20:16;;;;;;;5.70;3.40;;;21.80;71.10;;;;;;6217400;23;20020;-74
2022/08/23 08:22:42;;;;;;;5.15;3.53;;;21.90;71.20;;;;;;6217543;23;20017;-74
2022/08/23 08:25:09;;;;;;;7.03;3.90;;;21.90;71.20;;;;;;6216676;23;20017;-74
2022/08/23 08:27:35;;;;;;;5.80;3.15;;;21.90;71.30;;;;;;6215537;23;20017;-74
2022/08/23 08:30:03;;;;;;;6.15;3.65;;;22.00;71.60;;;;;;6216303;23;20102;-74
2022/08/23 08:32:29;;;;;;;4.57;3.30;;;22.00;71.50;;;;;;6217100;23;20021;-74
2022/08/23 08:34:55;;;;;;;6.32;3.42;;;22.00;71.40;;;;;;6217567;23;20025;-74
2022/08/23 08:37:21;;;;;;;6.18;3.10;;;22.00;71.60;;;;;;6217419;23;20371;-74
2022/08/23 08:39:46;;;;;;;8.05;3.58;;;22.10;71.80;;;;;;6218132;23;20039;-74
2022/08/23 08:42:15;;;;;;;8.30;3.83;;;22.10;71.80;;;;;;6218828;23;20082;-76
2022/08/23 08:45:13;;;;;;;13.63;3.72;;;22.10;71.70;;;;;;6219124;23;20017;-79
2022/08/23 08:48:03;;;;;;;16.05;3.55;;;22.20;71.60;;;;;;6217367;23;20298;-76
2022/08/23 08:50:43;;;;;;;8.93;3.45;;;22.20;71.70;;;;;;6197517;23;20369;-78
2022/08/23 08:53:17;;;;;;;16.00;3.33;;;22.20;71.70;;;;;;6223047;23;20012;-78
2022/08/23 08:56:02;;;;;;;8.95;3.08;;;22.20;72.30;;;;;;6249402;23;20471;-76
2022/08/23 08:58:49;;;;;;;10.63;3.10;;;22.20;71.80;;;;;;6249607;23;20016;-78
2022/08/23 09:01:17;;;;;;;16.10;3.72;;;22.20;71.80;;;;;;6249630;23;20341;-80
2022/08/23 09:03:43;;;;;;;18.10;3.70;;;22.20;71.80;;;;;;6248984;23;20020;-79
2022/08/23 09:06:24;;;;;;;10.43;3.83;;;22.20;72.10;;;;;;6197705;23;20049;-79
2022/08/23 09:09:02;;;;;;;11.20;3.25;;;22.30;72.20;;;;;;6249619;23;20015;-79
2022/08/23 09:11:44;;;;;;;28.60;4.35;;;22.30;72.40;;;;;;6222562;23;20031;-73
2022/08/23 09:14:37;;;;;;;23.35;5.40;;;22.30;72.30;;;;;;6248986;23;20016;-78
2022/08/23 09:17:11;;;;;;;19.88;6.15;;;22.40;72.90;;;;;;6249131;23;20467;-75
2022/08/23 09:19:38;;;;;;;24.00;8.00;;;22.40;72.30;;;;;;6249665;23;20016;-76
2022/08/23 09:22:12;;;;;;;17.65;7.63;;;22.40;72.40;;;;;;6223204;23;20023;-76
2022/08/23 09:24:38;;;;;;;19.25;7.30;;;22.50;72.70;;;;;;6248735;23;20020;-74
2022/08/23 09:27:04;;;;;;;13.32;7.20;;;22.50;72.50;;;;;;6249209;23;20016;-75
2022/08/23 09:29:34;;;;;;;9.40;6.50;;;22.50;72.30;;;;;;6249252;23;20021;-75
2022/08/23 09:32:05;;;;;;;16.20;5.95;;;22.50;72.30;;;;;;6249501;23;20379;-75
2022/08/23 09:34:35;;;;;;;12.15;6.03;;;22.60;72.20;;;;;;6248862;23;20416;-75
2022/08/23 09:37:17;;;;;;;12.07;7.75;;;22.60;72.20;;;;;;6248946;23;20016;-75
2022/08/23 09:39:50;;;;;;;15.33;8.87;;;22.60;72.30;;;;;;6249284;23;20016;-76
2022/08/23 09:42:32;;;;;;;15.40;7.65;;;22.60;72.20;;;;;;6249466;23;20054;-75
2022/08/23 09:44:59;;;;;;;10.40;7.32;;;22.60;71.90;;;;;;6249346;23;20024;-75
2022/08/23 09:47:40;;;;;;;10.88;6.05;;;22.60;71.90;;;;;;6222182;23;20016;-79
2022/08/23 09:50:29;;;;;;;12.20;5.57;;;22.70;71.80;;;;;;6248280;23;20074;-77
2022/08/23 09:53:01;;;;;;;9.95;4.55;;;22.70;71.70;;;;;;6249137;23;20099;-78
2022/08/23 09:55:40;;;;;;;7.50;4.63;;;22.60;71.80;;;;;;6222594;23;20117;-79
2022/08/23 09:58:30;;;;;;;10.18;4.57;;;22.60;72.00;;;;;;6247865;23;20078;-79
2022/08/23 10:01:10;;;;;;;7.15;4.63;;;22.70;72.10;;;;;;6221798;23;20030;-77
2022/08/23 10:03:36;;;;;;;9.73;4.50;;;22.70;72.90;;;;;;6222547;23;20059;-77
2022/08/23 10:06:02;;;;;;;9.80;4.40;;;22.70;72.30;;;;;;6222489;23;20421;-79
2022/08/23 10:08:50;;;;;;;8.85;3.97;;;22.70;72.30;;;;;;6248489;23;20027;-78
2022/08/23 10:11:29;;;;;;;8.45;3.90;;;22.70;72.30;;;;;;6248927;23;20349;-77
2022/08/23 10:13:55;;;;;;;6.78;4.05;;;22.70;72.30;;;;;;6222022;23;20052;-80
2022/08/23 10:16:38;;;;;;;4.53;3.10;;;22.70;72.10;;;;;;6248381;23;20047;-77
2022/08/23 10:19:37;;;;;;;9.90;3.35;;;22.70;71.70;;;;;;6248595;23;20015;-79
2022/08/23 10:22:25;;;;;;;9.05;3.45;;;22.80;71.90;;;;;;6248408;23;20019;-78
2022/08/23 10:25:15;;;;;;;13.00;3.72;;;22.80;71.90;;;;;;6248564;23;20024;-79
2022/08/23 10:31:12;;;;;;;11.50;3.85;;;22.80;71.70;;;;;;6248646;23;20031;-76
2022/08/23 10:33:55;;;;;;;6.25;2.95;;;22.80;71.70;;;;;;6248718;23;20023;-77
2022/08/23 10:36:21;;;;;;;9.85;3.28;;;22.80;71.70;;;;;;6222685;23;20027;-77
2022/08/23 10:38:55;;;;;;;9.70;3.33;;;22.80;71.60;;;;;;6248688;23;20020;-77
2022/08/23 10:41:42;;;;;;;5.53;3.30;;;22.80;71.40;;;;;;6248407;23;20020;-78
2022/08/23 10:44:26;;;;;;;8.07;3.45;;;22.80;71.20;;;;;;6249348;23;20012;-77
2022/08/23 10:47:30;;;;;;;11.85;3.53;;;22.80;71.20;;;;;;6248034;23;20016;-77
2022/08/23 10:49:59;;;;;;;7.35;2.97;;;22.80;71.30;;;;;;6174269;23;20030;-77
2022/08/23 10:52:35;;;;;;;10.38;3.58;;;22.90;71.10;;;;;;6222068;23;20321;-78
2022/08/23 10:55:15;;;;;;;8.90;3.20;;;22.90;70.60;;;;;;6248258;23;20016;-77
2022/08/23 10:57:45;;;;;;;7.47;3.08;;;22.90;70.30;;;;;;6248254;23;20008;-79
2022/08/23 11:00:21;;;;;;;8.38;3.47;;;23.00;70.20;;;;;;6223083;23;20024;-78
2022/08/23 11:03:10;;;;;;;8.65;3.50;;;22.90;69.80;;;;;;6247740;23;20031;-80
2022/08/23 11:05:37;;;;;;;8.25;3.78;;;22.90;69.80;;;;;;6220713;23;20409;-74
2022/08/23 11:08:10;;;;;;;6.63;2.95;;;22.90;70.10;;;;;;6247848;23;20019;-81
2022/08/23 11:10:38;;;;;;;10.63;3.45;;;23.00;70.40;;;;;;6222154;23;20043;-81
2022/08/23 11:13:23;;;;;;;12.95;3.08;;;23.00;70.50;;;;;;6248043;23;20027;-80
2022/08/23 11:16:11;;;;;;;12.15;3.00;;;23.00;70.60;;;;;;6221456;23;20016;-81
2022/08/23 11:18:42;;;;;;;5.18;2.90;;;23.00;70.70;;;;;;6247870;23;20024;-78
2022/08/23 11:21:30;;;;;;;12.38;3.95;;;23.00;71.20;;;;;;6221509;23;20030;-79
2022/08/23 11:23:57;;;;;;;11.77;3.55;;;23.00;70.30;;;;;;6221827;23;20020;-80
2022/08/23 11:26:25;;;;;;;13.38;6.03;;;23.00;70.10;;;;;;6248236;23;20020;-81
2022/08/23 11:28:53;;;;;;;12.63;4.88;;;23.10;69.00;;;;;;6221439;23;20023;-79
2022/08/23 11:31:28;;;;;;;10.60;4.75;;;23.10;68.80;;;;;;6247770;23;20062;-80
2022/08/23 11:34:09;;;;;;;14.98;5.00;;;23.10;68.80;;;;;;6246365;23;20024;-80
2022/08/23 11:36:36;;;;;;;15.73;4.60;;;23.10;69.00;;;;;;6248288;23;20012;-80
2022/08/23 11:39:11;;;;;;;11.30;4.15;;;23.10;69.20;;;;;;6221423;23;20320;-80
2022/08/23 11:41:55;;;;;;;11.85;4.00;;;23.10;69.40;;;;;;6196389;23;20027;-76
2022/08/23 11:44:33;;;;;;;12.25;4.43;;;23.10;69.60;;;;;;6248429;23;20016;-81
2022/08/23 13:12:16;;;;;;;8.70;3.97;;;23.50;66.60;;;;;;6201734;23;20029;-74
2022/08/23 16:29:08;;;;;;;9.38;5.28;;;24.00;74.10;;;;;;6215752;23;20349;-72
2022/08/23 16:31:34;;;;;;;12.20;5.43;;;24.00;74.50;;;;;;6217082;23;20095;-73
2022/08/23 16:34:02;;;;;;;9.75;5.10;;;24.00;74.50;;;;;;6217420;23;20060;-73
2022/08/23 16:36:28;;;;;;;10.80;6.43;;;24.00;74.50;;;;;;6217229;23;20424;-80
2022/08/23 16:38:54;;;;;;;11.27;6.65;;;24.00;74.30;;;;;;6166080;23;20016;-77
2022/08/23 16:41:21;;;;;;;12.75;6.57;;;24.00;74.30;;;;;;6217418;23;20050;-77
2022/08/23 16:43:48;;;;;;;8.65;5.78;;;24.00;74.40;;;;;;6217405;23;20024;-78
2022/08/23 16:46:15;;;;;;;10.55;6.18;;;24.00;74.50;;;;;;6216025;23;20017;-79
2022/08/23 16:48:44;;;;;;;8.65;5.50;;;24.00;74.60;;;;;;6191047;23;20456;-72
2022/08/23 16:51:12;;;;;;;9.45;5.93;;;24.00;74.70;;;;;;6217274;23;20082;-75
2022/08/23 16:53:39;;;;;;;8.55;5.88;;;24.00;74.20;;;;;;6217724;23;20013;-75
2022/08/23 16:56:07;;;;;;;10.00;6.78;;;24.00;73.50;;;;;;6217442;23;20163;-74
2022/08/23 16:58:33;;;;;;;10.65;6.10;;;23.90;73.00;;;;;;6217605;23;20099;-74
2022/08/23 17:00:59;;;;;;;9.20;5.82;;;23.90;72.80;;;;;;6219132;23;20027;-74
2022/08/23 17:03:26;;;;;;;9.68;6.50;;;23.90;72.80;;;;;;6218888;23;20432;-74
2022/08/23 17:05:51;;;;;;;10.30;7.30;;;23.90;72.80;;;;;;6219525;23;20021;-74
2022/08/23 17:08:17;;;;;;;10.40;6.22;;;23.90;72.80;;;;;;6219031;23;20372;-73
2022/08/23 17:10:43;;;;;;;9.73;6.72;;;23.90;72.90;;;;;;6219120;23;20009;-75
2022/08/23 17:13:12;;;;;;;9.73;5.68;;;23.90;72.70;;;;;;6219225;23;20031;-78
2022/08/23 17:15:38;;;;;;;11.35;5.82;;;23.90;72.70;;;;;;6218979;23;20024;-76
2022/08/23 17:18:05;;;;;;;12.30;5.80;;;23.90;72.80;;;;;;6219493;23;20027;-76
2022/08/23 17:20:33;;;;;;;11.57;5.65;;;23.90;72.90;;;;;;6219178;23;20013;-77
2022/08/23 17:22:59;;;;;;;6.47;3.75;;;23.90;73.10;;;;;;6219186;23;20350;-76
2022/08/23 17:25:26;;;;;;;14.80;6.10;;;23.90;73.20;;;;;;6218753;23;20023;-77
2022/08/23 17:27:52;;;;;;;11.15;4.82;;;23.90;73.20;;;;;;6217814;23;20028;-77
2022/08/23 17:30:20;;;;;;;22.10;6.93;;;23.90;73.40;;;;;;6219799;23;20021;-77
2022/08/23 17:32:47;;;;;;;23.08;7.00;;;23.90;73.80;;;;;;6218918;23;20017;-77
2022/08/23 17:35:14;;;;;;;21.63;7.03;;;23.90;74.20;;;;;;6219426;23;20091;-78
2022/08/23 17:37:40;;;;;;;15.93;5.50;;;23.90;74.30;;;;;;6218902;23;20020;-76
2022/08/23 17:40:09;;;;;;;11.98;4.63;;;23.90;74.40;;;;;;6218065;23;20530;-76
2022/08/23 17:42:36;;;;;;;10.80;4.65;;;23.90;74.60;;;;;;6218117;23;20021;-76
2022/08/23 17:45:04;;;;;;;7.22;3.90;;;23.90;74.80;;;;;;6219530;23;20031;-78
2022/08/23 17:47:30;;;;;;;8.98;4.03;;;23.90;74.90;;;;;;6218978;23;20309;-77
2022/08/23 17:49:56;;;;;;;6.90;3.53;;;23.80;74.30;;;;;;6216872;23;20020;-81
2022/08/23 17:52:24;;;;;;;11.15;3.63;;;23.90;73.90;;;;;;6218613;23;20271;-80
2022/08/23 17:54:51;;;;;;;7.88;3.75;;;23.80;73.60;;;;;;6218060;23;20020;-81
2022/08/23 17:57:17;;;;;;;8.00;4.75;;;23.90;73.50;;;;;;6218481;23;20027;-80
2022/08/23 17:59:43;;;;;;;8.82;5.00;;;23.90;73.30;;;;;;6219501;23;20020;-80
2022/08/23 18:02:08;;;;;;;8.10;4.63;;;23.90;73.20;;;;;;6217507;23;20024;-80
2022/08/23 18:04:34;;;;;;;6.90;4.95;;;23.90;73.00;;;;;;6218855;23;20021;-80
2022/08/23 18:07:03;;;;;;;7.82;5.72;;;23.90;72.90;;;;;;6218204;23;20300;-79
2022/08/23 18:09:30;;;;;;;9.95;5.50;;;23.90;72.80;;;;;;6218593;23;20158;-80
2022/08/23 18:11:56;;;;;;;12.02;6.15;;;23.90;72.60;;;;;;6217169;23;20028;-78
2022/08/23 18:14:22;;;;;;;8.90;6.90;;;23.80;72.30;;;;;;6218182;23;20016;-79
2022/08/23 18:16:49;;;;;;;9.20;6.55;;;23.80;72.20;;;;;;6217517;23;20056;-78
2022/08/23 18:19:15;;;;;;;11.27;6.38;;;23.80;72.30;;;;;;6219350;23;20012;-79
2022/08/23 18:21:42;;;;;;;9.55;6.70;;;23.70;72.40;;;;;;6218345;23;20016;-78
2022/08/23 18:24:09;;;;;;;8.70;5.55;;;23.70;72.50;;;;;;6218577;23;20092;-78
2022/08/23 18:29:20;;;;;;;9.38;5.78;;;23.60;72.70;;;;;;6216013;23;20028;-78
2022/08/23 18:31:47;;;;;;;9.73;6.38;;;23.60;72.80;;;;;;6218011;23;20017;-78
2022/08/23 18:34:15;;;;;;;9.88;6.85;;;23.50;72.80;;;;;;6217615;23;20017;-79
2022/08/23 19:25:53;;;;;;;9.82;6.00;;;23.00;74.30;;;;;;6211397;23;20050;-75
2022/08/23 19:28:19;;;;;;;7.45;6.15;;;23.00;74.50;;;;;;6217791;23;20020;-75
2022/08/23 19:30:48;;;;;;;8.07;6.80;;;22.90;74.40;;;;;;6217969;23;20082;-75
2022/08/23 19:33:14;;;;;;;9.13;6.40;;;22.90;74.50;;;;;;6217431;23;20031;-76
2022/08/23 19:35:40;;;;;;;10.02;6.20;;;22.80;74.70;;;;;;6216418;23;20512;-77
2022/08/23 19:38:05;;;;;;;8.57;6.10;;;22.80;75.00;;;;;;6217984;23;20031;-76
2022/08/23 19:40:31;;;;;;;6.40;5.68;;;22.80;75.00;;;;;;6218264;23;20009;-76
2022/08/23 19:42:59;;;;;;;7.65;5.90;;;22.80;75.10;;;;;;6217784;23;20313;-76
2022/08/23 19:45:25;;;;;;;6.57;5.28;;;22.70;75.10;;;;;;6217973;23;20028;-71
2022/08/23 19:47:51;;;;;;;7.53;5.68;;;22.70;75.30;;;;;;6217924;23;20022;-77
2022/08/23 19:50:17;;;;;;;6.95;5.20;;;22.70;75.40;;;;;;6217705;23;20421;-75
2022/08/23 19:52:42;;;;;;;9.27;6.70;;;22.80;75.40;;;;;;6218817;23;20017;-76
2022/08/23 19:55:09;;;;;;;7.88;6.60;;;22.80;75.10;;;;;;6217858;23;20483;-77
2022/08/23 19:57:36;;;;;;;9.90;6.70;;;22.80;75.10;;;;;;6217481;23;20116;-77
2022/08/23 20:00:12;;;;;;;6.97;5.75;;;22.80;75.10;;;;;;6217473;23;20027;-78
2022/08/23 20:02:37;;;;;;;6.80;6.15;;;22.80;75.20;;;;;;6191153;23;20468;-71
2022/08/23 20:05:05;;;;;;;8.15;5.65;;;22.70;75.30;;;;;;6217629;23;20021;-79
2022/08/23 20:07:31;;;;;;;8.68;5.65;;;22.60;75.40;;;;;;6217345;23;20017;-78
2022/08/23 20:09:57;;;;;;;5.57;4.88;;;22.60;75.50;;;;;;6191366;23;20016;-78
2022/08/23 20:12:24;;;;;;;6.05;5.43;;;22.60;75.60;;;;;;6217487;23;20050;-79
2022/08/23 20:14:50;;;;;;;5.72;5.05;;;22.60;75.70;;;;;;6191206;23;20021;-79
2022/08/23 20:17:16;;;;;;;7.68;5.72;;;22.60;75.80;;;;;;6217526;23;20436;-77
2022/08/23 20:19:42;;;;;;;7.28;5.63;;;22.50;75.80;;;;;;6217046;23;20020;-77
2022/08/23 20:24:52;;;;;;;6.60;4.32;;;22.50;75.80;;;;;;6217403;23;20032;-76
2022/08/23 20:27:19;;;;;;;4.55;4.03;;;22.50;75.80;;;;;;6217345;23;20017;-76
2022/08/23 20:29:45;;;;;;;7.03;4.90;;;22.50;75.80;;;;;;6216968;23;20020;-75
2022/08/23 20:32:11;;;;;;;8.98;4.35;;;22.50;75.80;;;;;;6217553;23;20016;-77
2022/08/23 20:34:37;;;;;;;5.50;3.60;;;22.50;75.70;;;;;;6217985;23;20012;-76
2022/08/23 20:37:04;;;;;;;4.93;3.85;;;22.40;75.60;;;;;;6219327;23;20017;-77
2022/08/23 20:39:30;;;;;;;5.53;3.75;;;22.40;75.50;;;;;;6218944;23;20028;-76
2022/08/23 20:41:56;;;;;;;7.38;2.88;;;22.40;76.00;;;;;;6193189;23;20016;-76
2022/08/23 20:44:24;;;;;;;3.75;2.97;;;22.40;75.40;;;;;;6218849;23;20021;-74
2022/08/23 20:46:50;;;;;;;14.18;10.63;;;22.40;75.20;;;;;;6218854;23;20016;-78
2022/08/23 20:49:16;;;;;;;6.57;5.32;;;22.40;75.30;;;;;;6219043;23;20058;-76
2022/08/23 20:51:42;;;;;;;7.05;4.32;;;22.40;75.20;;;;;;6218956;23;20033;-76
2022/08/23 20:54:09;;;;;;;5.93;4.40;;;22.40;75.00;;;;;;6193018;23;20085;-75
2022/08/23 20:56:36;;;;;;;5.35;4.85;;;22.40;74.90;;;;;;6219110;23;20020;-77
2022/08/23 20:59:03;;;;;;;6.97;5.80;;;22.40;74.90;;;;;;6192947;23;20012;-76
2022/08/23 21:01:29;;;;;;;5.82;4.95;;;22.40;75.00;;;;;;6219008;23;20059;-76
2022/08/23 21:03:55;;;;;;;7.18;4.90;;;22.40;75.10;;;;;;6219034;23;20016;-77
2022/08/23 21:06:26;;;;;;;5.53;4.50;;;22.40;75.10;;;;;;6218912;23;20083;-77
2022/08/23 21:08:54;;;;;;;7.38;5.50;;;22.40;75.10;;;;;;6218977;23;20028;-77
2022/08/23 21:11:24;;;;;;;7.22;5.60;;;22.50;75.00;;;;;;6219133;23;20055;-76
2022/08/23 21:13:51;;;;;;;6.03;5.43;;;22.50;74.90;;;;;;6217729;23;20020;-77
2022/08/23 21:16:18;;;;;;;6.60;5.57;;;22.60;74.80;;;;;;6219101;23;20024;-77
2022/08/23 21:18:44;;;;;;;6.07;5.47;;;22.60;74.70;;;;;;6218870;23;20012;-77
2022/08/23 21:21:10;;;;;;;7.07;5.90;;;22.60;74.60;;;;;;6192791;23;20048;-77
2022/08/23 21:23:37;;;;;;;7.85;6.45;;;22.60;74.50;;;;;;6218601;23;20024;-76
2022/08/23 21:26:04;;;;;;;6.57;5.70;;;22.60;74.50;;;;;;6218185;23;20074;-77
